createdAt,value
2017-04-20T00:00:01.211Z,1037
2017-04-20T00:00:41.660Z,1037.01
2017-04-20T00:01:22.154Z,1037.02
2017-04-20T00:02:02.607Z,1036.96
2017-04-20T00:02:43.135Z,1036.99
2017-04-20T00:03:23.656Z,1037
2017-04-20T00:04:04.113Z,1036.98
2017-04-20T00:04:44.546Z,1036.98
2017-04-20T00:05:25.077Z,1036.96
2017-04-20T00:06:05.488Z,1036.93
2017-04-20T00:06:46.001Z,1036.94
2017-04-20T00:07:26.531Z,1037
2017-04-20T00:08:06.993Z,1037
2017-04-20T00:08:47.486Z,1036.95
2017-04-20T00:09:27.920Z,1037.01
2017-04-20T00:10:08.441Z,1036.99
2017-04-20T00:10:48.869Z,1037
2017-04-20T00:11:29.353Z,1036.94
2017-04-20T00:12:09.818Z,1037
2017-04-20T00:12:50.339Z,1036.99
2017-04-20T00:13:30.842Z,1036.98
2017-04-20T00:14:11.242Z,1037.03
2017-04-20T00:14:51.746Z,1037.04
2017-04-20T00:15:32.272Z,1037.05
2017-04-20T00:16:12.787Z,1037.04
2017-04-20T00:16:53.227Z,1036.99
2017-04-20T00:17:33.706Z,1037
2017-04-20T00:18:14.141Z,1036.95
2017-04-20T00:18:54.665Z,1036.99
2017-04-20T00:19:35.213Z,1037
2017-04-20T00:20:15.662Z,1036.99
2017-04-20T00:20:56.174Z,1036.93
2017-04-20T00:21:36.628Z,1036.95
2017-04-20T00:22:17.131Z,1036.93
2017-04-20T00:22:57.600Z,1036.88
2017-04-20T00:23:38.201Z,1036.84
2017-04-20T00:24:18.715Z,1036.88
2017-04-20T00:24:59.205Z,1036.83
2017-04-20T00:25:39.659Z,1036.83
2017-04-20T00:26:20.356Z,1036.83
2017-04-20T00:27:00.863Z,1036.82
2017-04-20T00:27:41.355Z,1036.82
2017-04-20T00:28:21.826Z,1036.81
2017-04-20T00:29:03.282Z,1036.86
2017-04-20T00:29:43.797Z,1036.82
2017-04-20T00:30:24.289Z,1036.79
2017-04-20T00:31:04.852Z,1036.83
2017-04-20T00:31:45.342Z,1036.83
2017-04-20T00:32:25.837Z,1036.81
2017-04-20T00:33:06.310Z,1036.8
2017-04-20T00:33:46.810Z,1036.76
2017-04-20T00:34:27.235Z,1036.84
2017-04-20T00:35:07.764Z,1036.71
2017-04-20T00:35:48.286Z,1036.77
2017-04-20T00:36:28.799Z,1036.8
2017-04-20T00:37:09.271Z,1036.77
2017-04-20T00:37:49.730Z,1036.77
2017-04-20T00:38:30.242Z,1036.82
2017-04-20T00:39:10.741Z,1036.8
2017-04-20T00:39:51.209Z,1036.79
2017-04-20T00:40:31.687Z,1036.78
2017-04-20T00:41:12.241Z,1036.79
2017-04-20T00:41:52.710Z,1036.82
2017-04-20T00:42:33.193Z,1036.82
2017-04-20T00:43:13.771Z,1036.76
2017-04-20T00:43:54.233Z,1036.79
2017-04-20T00:44:34.708Z,1036.79
2017-04-20T00:45:15.161Z,1036.82
2017-04-20T00:45:55.665Z,1036.82
2017-04-20T00:46:36.135Z,1036.78
2017-04-20T00:47:16.612Z,1036.82
2017-04-20T00:47:57.221Z,1036.81
2017-04-20T00:48:37.683Z,1036.81
2017-04-20T00:49:18.168Z,1036.81
2017-04-20T00:49:58.678Z,1036.8
2017-04-20T00:50:39.177Z,1036.8
2017-04-20T00:51:19.660Z,1036.8
2017-04-20T00:52:00.170Z,1036.75
2017-04-20T00:52:40.676Z,1036.75
2017-04-20T00:53:21.161Z,1036.74
2017-04-20T00:54:01.651Z,1036.7
2017-04-20T00:54:42.220Z,1036.69
2017-04-20T00:55:22.689Z,1036.73
2017-04-20T00:56:03.201Z,1036.66
2017-04-20T00:56:43.661Z,1036.68
2017-04-20T00:57:24.125Z,1036.73
2017-04-20T00:58:04.603Z,1036.74
2017-04-20T00:58:45.033Z,1036.74
2017-04-20T00:59:25.483Z,1036.75
2017-04-20T01:00:06.015Z,1036.7
2017-04-20T01:00:46.479Z,1036.69
2017-04-20T01:01:26.963Z,1036.69
2017-04-20T01:02:07.414Z,1036.68
2017-04-20T01:02:47.972Z,1036.68
2017-04-20T01:03:28.445Z,1036.71
2017-04-20T01:04:08.929Z,1036.68
2017-04-20T01:04:49.411Z,1036.71
2017-04-20T01:05:29.923Z,1036.76
2017-04-20T01:06:10.397Z,1036.71
2017-04-20T01:06:50.897Z,1036.73
2017-04-20T01:07:31.439Z,1036.75
2017-04-20T01:08:11.918Z,1036.76
2017-04-20T01:08:52.468Z,1036.72
2017-04-20T01:09:32.889Z,1036.75
2017-04-20T01:10:13.368Z,1036.72
2017-04-20T01:10:53.824Z,1036.7
2017-04-20T01:11:34.424Z,1036.72
2017-04-20T01:12:14.896Z,1036.65
2017-04-20T01:12:55.375Z,1036.64
2017-04-20T01:13:35.882Z,1036.66
2017-04-20T01:14:16.329Z,1036.61
2017-04-20T01:14:56.810Z,1036.69
2017-04-20T01:15:37.324Z,1036.7
2017-04-20T01:16:17.806Z,1036.67
2017-04-20T01:16:58.284Z,1036.66
2017-04-20T01:17:38.784Z,1036.66
2017-04-20T01:18:19.389Z,1036.65
2017-04-20T01:18:59.886Z,1036.66
2017-04-20T01:19:41.409Z,1036.68
2017-04-20T01:20:21.889Z,1036.66
2017-04-20T01:21:02.341Z,1036.64
2017-04-20T01:21:42.816Z,1036.65
2017-04-20T01:22:23.295Z,1036.63
2017-04-20T01:23:03.743Z,1036.63
2017-04-20T01:23:44.275Z,1036.62
2017-04-20T01:24:24.821Z,1036.65
2017-04-20T01:25:05.307Z,1036.64
2017-04-20T01:25:45.788Z,1036.63
2017-04-20T01:26:26.283Z,1036.63
2017-04-20T01:27:06.804Z,1036.67
2017-04-20T01:27:47.279Z,1036.62
2017-04-20T01:28:27.764Z,1036.65
2017-04-20T01:29:08.261Z,1036.65
2017-04-20T01:29:48.782Z,1036.66
2017-04-20T01:30:29.293Z,1036.64
2017-04-20T01:31:09.750Z,1036.61
2017-04-20T01:31:50.313Z,1036.6
2017-04-20T01:32:30.805Z,1036.62
2017-04-20T01:33:11.272Z,1036.62
2017-04-20T01:33:51.773Z,1036.63
2017-04-20T01:34:32.318Z,1036.59
2017-04-20T01:35:12.711Z,1036.62
2017-04-20T01:35:53.222Z,1036.59
2017-04-20T01:36:33.700Z,1036.58
2017-04-20T01:37:14.254Z,1036.61
2017-04-20T01:37:54.719Z,1036.61
2017-04-20T01:38:35.199Z,1036.59
2017-04-20T01:39:15.655Z,1036.55
2017-04-20T01:39:56.236Z,1036.56
2017-04-20T01:40:36.711Z,1036.54
2017-04-20T01:41:17.235Z,1036.52
2017-04-20T01:41:57.685Z,1036.54
2017-04-20T01:42:38.150Z,1036.53
2017-04-20T01:43:18.655Z,1036.5
2017-04-20T01:43:59.204Z,1036.55
2017-04-20T01:44:39.727Z,1036.49
2017-04-20T01:45:20.201Z,1036.51
2017-04-20T01:46:00.632Z,1036.51
2017-04-20T01:46:41.143Z,1036.52
2017-04-20T01:47:21.625Z,1036.53
2017-04-20T01:48:02.075Z,1036.52
2017-04-20T01:48:42.605Z,1036.49
2017-04-20T01:49:23.046Z,1036.48
2017-04-20T01:50:03.551Z,1036.48
2017-04-20T01:50:44.041Z,1036.44
2017-04-20T01:51:24.534Z,1036.47
2017-04-20T01:52:05.027Z,1036.51
2017-04-20T01:52:45.694Z,1036.51
2017-04-20T01:53:26.187Z,1036.43
2017-04-20T01:54:06.672Z,1036.41
2017-04-20T01:54:47.146Z,1036.47
2017-04-20T01:55:27.630Z,1036.47
2017-04-20T01:56:08.143Z,1036.44
2017-04-20T01:56:48.638Z,1036.44
2017-04-20T01:57:29.148Z,1036.43
2017-04-20T01:58:09.630Z,1036.45
2017-04-20T01:58:50.171Z,1036.44
2017-04-20T01:59:30.596Z,1036.49
2017-04-20T02:00:11.078Z,1036.5
2017-04-20T02:00:51.605Z,1036.52
2017-04-20T02:01:32.014Z,1036.51
2017-04-20T02:02:12.534Z,1036.56
2017-04-20T02:02:52.990Z,1036.5
2017-04-20T02:03:33.496Z,1036.5
2017-04-20T02:04:13.940Z,1036.54
2017-04-20T02:04:54.460Z,1036.47
2017-04-20T02:05:34.920Z,1036.49
2017-04-20T02:06:15.458Z,1036.5
2017-04-20T02:06:55.990Z,1036.5
2017-04-20T02:07:36.426Z,1036.49
2017-04-20T02:08:16.909Z,1036.46
2017-04-20T02:08:57.385Z,1036.45
2017-04-20T02:09:37.832Z,1036.47
2017-04-20T02:10:18.307Z,1036.47
2017-04-20T02:10:58.811Z,1036.49
2017-04-20T02:11:39.292Z,1036.45
2017-04-20T02:12:19.821Z,1036.43
2017-04-20T02:13:02.929Z,1036.42
2017-04-20T02:13:43.418Z,1036.4
2017-04-20T02:14:23.916Z,1036.39
2017-04-20T02:15:04.462Z,1036.38
2017-04-20T02:15:44.918Z,1036.36
2017-04-20T02:16:25.345Z,1036.38
2017-04-20T02:17:05.856Z,1036.37
2017-04-20T02:17:46.383Z,1036.37
2017-04-20T02:18:26.894Z,1036.33
2017-04-20T02:19:07.333Z,1036.31
2017-04-20T02:19:47.871Z,1036.28
2017-04-20T02:20:28.344Z,1036.33
2017-04-20T02:21:08.798Z,1036.29
2017-04-20T02:21:49.292Z,1036.27
2017-04-20T02:22:29.810Z,1036.31
2017-04-20T02:23:10.284Z,1036.31
2017-04-20T02:23:50.785Z,1036.31
2017-04-20T02:24:31.298Z,1036.31
2017-04-20T02:25:11.731Z,1036.34
2017-04-20T02:25:52.254Z,1036.3
2017-04-20T02:26:32.814Z,1036.34
2017-04-20T02:27:13.264Z,1036.34
2017-04-20T02:27:53.718Z,1036.37
2017-04-20T02:28:34.238Z,1036.34
2017-04-20T02:29:14.760Z,1036.31
2017-04-20T02:29:55.250Z,1036.32
2017-04-20T02:30:35.767Z,1036.33
2017-04-20T02:31:16.230Z,1036.31
2017-04-20T02:31:56.732Z,1036.28
2017-04-20T02:32:37.217Z,1036.26
2017-04-20T02:33:17.706Z,1036.29
2017-04-20T02:33:58.159Z,1036.29
2017-04-20T02:34:38.629Z,1036.27
2017-04-20T02:35:19.193Z,1036.31
2017-04-20T02:35:59.625Z,1036.29
2017-04-20T02:36:40.102Z,1036.31
2017-04-20T02:37:20.600Z,1036.3
2017-04-20T02:38:01.104Z,1036.26
2017-04-20T02:38:41.581Z,1036.26
2017-04-20T02:39:22.060Z,1036.28
2017-04-20T02:40:02.599Z,1036.22
2017-04-20T02:40:43.030Z,1036.24
2017-04-20T02:41:23.549Z,1036.3
2017-04-20T02:42:04.047Z,1036.25
2017-04-20T02:42:44.593Z,1036.32
2017-04-20T02:43:25.154Z,1036.27
2017-04-20T02:44:05.636Z,1036.31
2017-04-20T02:44:46.104Z,1036.28
2017-04-20T02:45:27.529Z,1036.31
2017-04-20T02:46:08.025Z,1036.25
2017-04-20T02:46:48.459Z,1036.3
2017-04-20T02:47:28.986Z,1036.29
2017-04-20T02:48:09.414Z,1036.34
2017-04-20T02:48:49.935Z,1036.28
2017-04-20T02:49:30.416Z,1036.24
2017-04-20T02:50:10.855Z,1036.25
2017-04-20T02:50:51.327Z,1036.27
2017-04-20T02:51:31.839Z,1036.27
2017-04-20T02:52:12.284Z,1036.25
2017-04-20T02:52:52.769Z,1036.23
2017-04-20T02:53:33.228Z,1036.23
2017-04-20T02:54:13.682Z,1036.2
2017-04-20T02:54:54.184Z,1036.19
2017-04-20T02:55:34.726Z,1036.18
2017-04-20T02:56:15.134Z,1036.17
2017-04-20T02:56:55.660Z,1036.2
2017-04-20T02:57:36.464Z,1036.18
2017-04-20T02:58:16.912Z,1036.15
2017-04-20T02:58:57.385Z,1036.21
2017-04-20T02:59:37.889Z,1036.19
2017-04-20T03:00:18.404Z,1036.17
2017-04-20T03:00:58.872Z,1036.16
2017-04-20T03:01:39.332Z,1036.18
2017-04-20T03:02:19.808Z,1036.16
2017-04-20T03:03:00.310Z,1036.18
2017-04-20T03:03:40.761Z,1036.17
2017-04-20T03:04:21.274Z,1036.18
2017-04-20T03:05:01.758Z,1036.16
2017-04-20T03:05:42.198Z,1036.17
2017-04-20T03:06:22.676Z,1036.16
2017-04-20T03:07:03.125Z,1036.17
2017-04-20T03:07:43.592Z,1036.11
2017-04-20T03:08:24.095Z,1036.14
2017-04-20T03:09:04.630Z,1036.15
2017-04-20T03:09:45.184Z,1036.17
2017-04-20T03:10:25.722Z,1036.14
2017-04-20T03:11:06.218Z,1036.14
2017-04-20T03:11:46.655Z,1036.15
2017-04-20T03:12:27.166Z,1036.15
2017-04-20T03:13:07.650Z,1036.14
2017-04-20T03:13:48.093Z,1036.14
2017-04-20T03:14:28.628Z,1036.16
2017-04-20T03:15:09.073Z,1036.16
2017-04-20T03:15:49.568Z,1036.13
2017-04-20T03:16:30.083Z,1036.16
2017-04-20T03:17:10.580Z,1036.12
2017-04-20T03:17:51.032Z,1036.09
2017-04-20T03:18:31.538Z,1036.09
2017-04-20T03:19:11.958Z,1036.09
2017-04-20T03:19:52.491Z,1036.09
2017-04-20T03:20:32.935Z,1036.1
2017-04-20T03:21:13.401Z,1036.06
2017-04-20T03:21:53.939Z,1036.03
2017-04-20T03:22:34.387Z,1036.06
2017-04-20T03:23:14.936Z,1036.04
2017-04-20T03:23:55.319Z,1036.06
2017-04-20T03:24:35.870Z,1036.03
2017-04-20T03:25:16.348Z,1036.01
2017-04-20T03:25:56.805Z,1036.04
2017-04-20T03:26:37.304Z,1036.03
2017-04-20T03:27:17.764Z,1036.01
2017-04-20T03:27:58.230Z,1036.02
2017-04-20T03:28:38.730Z,1036.03
2017-04-20T03:29:19.208Z,1036.05
2017-04-20T03:29:59.734Z,1036.03
2017-04-20T03:30:40.504Z,1036.07
2017-04-20T03:31:20.969Z,1036.06
2017-04-20T03:32:01.418Z,1036.05
2017-04-20T03:32:41.927Z,1036.06
2017-04-20T03:33:22.431Z,1036.05
2017-04-20T03:34:02.913Z,1036.08
2017-04-20T03:34:43.367Z,1036.09
2017-04-20T03:35:23.848Z,1036.08
2017-04-20T03:36:04.289Z,1036.07
2017-04-20T03:36:44.793Z,1036.1
2017-04-20T03:37:25.314Z,1036.08
2017-04-20T03:38:05.816Z,1036.06
2017-04-20T03:38:46.345Z,1036.06
2017-04-20T03:39:26.817Z,1036.06
2017-04-20T03:40:07.289Z,1036.05
2017-04-20T03:40:47.724Z,1036.03
2017-04-20T03:41:28.221Z,1036.07
2017-04-20T03:42:08.761Z,1036.07
2017-04-20T03:42:49.320Z,1036.07
2017-04-20T03:43:29.748Z,1036.07
2017-04-20T03:44:10.364Z,1036.09
2017-04-20T03:44:50.709Z,1036.1
2017-04-20T03:45:31.209Z,1036.05
2017-04-20T03:46:11.755Z,1036.05
2017-04-20T03:46:52.210Z,1036.02
2017-04-20T03:47:32.702Z,1036.01
2017-04-20T03:48:13.161Z,1036
2017-04-20T03:48:53.620Z,1035.99
2017-04-20T03:49:34.157Z,1036.01
2017-04-20T03:50:14.676Z,1036.03
2017-04-20T03:50:55.120Z,1036
2017-04-20T03:51:35.571Z,1036.02
2017-04-20T03:52:16.072Z,1035.98
2017-04-20T03:52:56.594Z,1036.05
2017-04-20T03:53:37.099Z,1036.02
2017-04-20T03:54:17.572Z,1035.97
2017-04-20T03:54:58.060Z,1035.98
2017-04-20T03:55:38.542Z,1035.99
2017-04-20T03:56:19.044Z,1035.97
2017-04-20T03:56:59.501Z,1035.95
2017-04-20T03:57:40.000Z,1035.93
2017-04-20T03:58:20.626Z,1035.92
2017-04-20T03:59:01.138Z,1035.87
2017-04-20T03:59:41.565Z,1035.91
2017-04-20T04:00:22.073Z,1035.88
2017-04-20T04:01:02.544Z,1035.84
2017-04-20T04:01:43.008Z,1035.85
2017-04-20T04:02:23.526Z,1035.8
2017-04-20T04:03:03.998Z,1035.83
2017-04-20T04:03:44.500Z,1035.81
2017-04-20T04:04:24.964Z,1035.77
2017-04-20T04:05:05.438Z,1035.91
2017-04-20T04:05:45.956Z,1035.84
2017-04-20T04:06:26.425Z,1035.86
2017-04-20T04:07:06.944Z,1035.84
2017-04-20T04:07:47.436Z,1035.85
2017-04-20T04:08:27.923Z,1035.8
2017-04-20T04:09:08.438Z,1035.84
2017-04-20T04:09:48.899Z,1035.85
2017-04-20T04:10:29.434Z,1035.81
2017-04-20T04:11:09.870Z,1035.86
2017-04-20T04:11:50.325Z,1035.83
2017-04-20T04:12:30.797Z,1035.85
2017-04-20T04:13:11.308Z,1035.86
2017-04-20T04:13:51.745Z,1035.85
2017-04-20T04:14:32.253Z,1035.84
2017-04-20T04:15:12.745Z,1035.83
2017-04-20T04:15:53.297Z,1035.83
2017-04-20T04:16:33.769Z,1035.86
2017-04-20T04:17:14.229Z,1035.88
2017-04-20T04:17:54.759Z,1035.9
2017-04-20T04:18:35.250Z,1035.86
2017-04-20T04:19:15.757Z,1035.85
2017-04-20T04:19:56.210Z,1035.9
2017-04-20T04:20:36.702Z,1035.86
2017-04-20T04:21:17.155Z,1035.84
2017-04-20T04:21:57.722Z,1035.89
2017-04-20T04:22:38.215Z,1035.88
2017-04-20T04:23:18.668Z,1035.82
2017-04-20T04:23:59.208Z,1035.86
2017-04-20T04:24:39.688Z,1035.82
2017-04-20T04:25:20.173Z,1035.83
2017-04-20T04:26:00.663Z,1035.86
2017-04-20T04:26:41.123Z,1035.82
2017-04-20T04:27:21.580Z,1035.82
2017-04-20T04:28:02.077Z,1035.84
2017-04-20T04:28:42.574Z,1035.83
2017-04-20T04:29:22.977Z,1035.83
2017-04-20T04:30:03.455Z,1035.78
2017-04-20T04:30:43.952Z,1035.81
2017-04-20T04:31:24.418Z,1035.77
2017-04-20T04:32:04.899Z,1035.77
2017-04-20T04:32:45.393Z,1035.73
2017-04-20T04:33:25.877Z,1035.74
2017-04-20T04:34:06.391Z,1035.76
2017-04-20T04:34:46.817Z,1035.75
2017-04-20T04:35:27.334Z,1035.75
2017-04-20T04:36:07.811Z,1035.73
2017-04-20T04:36:48.532Z,1035.77
2017-04-20T04:37:29.062Z,1035.72
2017-04-20T04:38:09.556Z,1035.75
2017-04-20T04:38:50.001Z,1035.78
2017-04-20T04:39:30.496Z,1035.72
2017-04-20T04:40:10.976Z,1035.7
2017-04-20T04:40:51.439Z,1035.73
2017-04-20T04:41:31.931Z,1035.72
2017-04-20T04:42:12.375Z,1035.7
2017-04-20T04:42:52.914Z,1035.73
2017-04-20T04:43:33.464Z,1035.71
2017-04-20T04:44:13.862Z,1035.69
2017-04-20T04:44:54.341Z,1035.67
2017-04-20T04:45:34.831Z,1035.71
2017-04-20T04:46:15.323Z,1035.75
2017-04-20T04:46:55.767Z,1035.74
2017-04-20T04:47:36.238Z,1035.8
2017-04-20T04:48:16.746Z,1035.74
2017-04-20T04:48:57.343Z,1035.81
2017-04-20T04:49:37.836Z,1035.78
2017-04-20T04:50:18.337Z,1035.81
2017-04-20T04:50:58.799Z,1035.78
2017-04-20T04:51:39.269Z,1035.82
2017-04-20T04:52:19.772Z,1035.8
2017-04-20T04:53:00.212Z,1035.84
2017-04-20T04:53:40.769Z,1035.83
2017-04-20T04:54:21.265Z,1035.83
2017-04-20T04:55:01.742Z,1035.83
2017-04-20T04:55:42.247Z,1035.79
2017-04-20T04:56:22.801Z,1035.83
2017-04-20T04:57:03.289Z,1035.8
2017-04-20T04:57:43.761Z,1035.85
2017-04-20T04:58:24.225Z,1035.83
2017-04-20T04:59:04.716Z,1035.82
2017-04-20T04:59:45.186Z,1035.82
2017-04-20T05:00:25.833Z,1035.79
2017-04-20T05:01:06.304Z,1035.78
2017-04-20T05:01:46.770Z,1035.78
2017-04-20T05:02:27.254Z,1035.77
2017-04-20T05:03:07.735Z,1035.73
2017-04-20T05:03:48.239Z,1035.78
2017-04-20T05:04:28.732Z,1035.77
2017-04-20T05:05:09.220Z,1035.7
2017-04-20T05:05:49.755Z,1035.72
2017-04-20T05:06:30.200Z,1035.73
2017-04-20T05:07:10.675Z,1035.73
2017-04-20T05:07:51.179Z,1035.72
2017-04-20T05:08:31.667Z,1035.72
2017-04-20T05:09:12.110Z,1035.7
2017-04-20T05:09:52.623Z,1035.75
2017-04-20T05:10:33.052Z,1035.77
2017-04-20T05:11:13.541Z,1035.71
2017-04-20T05:11:54.012Z,1035.72
2017-04-20T05:12:34.502Z,1035.71
2017-04-20T05:13:14.983Z,1035.76
2017-04-20T05:13:55.558Z,1035.73
2017-04-20T05:14:36.046Z,1035.73
2017-04-20T05:15:16.499Z,1035.73
2017-04-20T05:15:56.969Z,1035.79
2017-04-20T05:16:37.441Z,1035.8
2017-04-20T05:17:17.861Z,1035.78
2017-04-20T05:17:58.380Z,1035.78
2017-04-20T05:18:38.905Z,1035.75
2017-04-20T05:19:19.501Z,1035.79
2017-04-20T05:20:00.028Z,1035.78
2017-04-20T05:20:40.478Z,1035.73
2017-04-20T05:21:20.984Z,1035.75
2017-04-20T05:22:01.434Z,1035.73
2017-04-20T05:22:41.960Z,1035.71
2017-04-20T05:23:22.480Z,1035.71
2017-04-20T05:24:02.955Z,1035.73
2017-04-20T05:24:43.425Z,1035.71
2017-04-20T05:25:23.900Z,1035.76
2017-04-20T05:26:04.448Z,1035.69
2017-04-20T05:26:44.946Z,1035.71
2017-04-20T05:27:25.384Z,1035.72
2017-04-20T05:28:05.891Z,1035.63
2017-04-20T05:28:46.394Z,1035.71
2017-04-20T05:29:26.913Z,1035.69
2017-04-20T05:30:07.424Z,1035.72
2017-04-20T05:30:47.895Z,1035.72
2017-04-20T05:31:28.495Z,1035.72
2017-04-20T05:32:09.011Z,1035.69
2017-04-20T05:32:49.525Z,1035.69
2017-04-20T05:33:30.091Z,1035.66
2017-04-20T05:34:10.581Z,1035.7
2017-04-20T05:34:51.065Z,1035.66
2017-04-20T05:35:31.539Z,1035.71
2017-04-20T05:36:12.103Z,1035.68
2017-04-20T05:36:52.563Z,1035.64
2017-04-20T05:37:33.032Z,1035.7
2017-04-20T05:38:13.635Z,1035.64
2017-04-20T05:38:54.150Z,1035.66
2017-04-20T05:39:35.396Z,1035.67
2017-04-20T05:40:15.913Z,1035.68
2017-04-20T05:40:56.417Z,1035.67
2017-04-20T05:41:36.874Z,1035.67
2017-04-20T05:42:17.368Z,1035.7
2017-04-20T05:42:57.871Z,1035.73
2017-04-20T05:43:38.336Z,1035.7
2017-04-20T05:44:18.777Z,1035.76
2017-04-20T05:44:59.254Z,1035.77
2017-04-20T05:45:39.947Z,1035.72
2017-04-20T05:46:20.413Z,1035.7
2017-04-20T05:47:00.868Z,1035.69
2017-04-20T05:47:41.355Z,1035.76
2017-04-20T05:48:21.950Z,1035.74
2017-04-20T05:49:02.428Z,1035.7
2017-04-20T05:49:42.938Z,1035.74
2017-04-20T05:50:23.401Z,1035.71
2017-04-20T05:51:03.889Z,1035.75
2017-04-20T05:51:44.370Z,1035.73
2017-04-20T05:52:24.870Z,1035.67
2017-04-20T05:53:05.380Z,1035.7
2017-04-20T05:53:45.838Z,1035.7
2017-04-20T05:54:26.291Z,1035.73
2017-04-20T05:55:06.782Z,1035.71
2017-04-20T05:55:47.294Z,1035.72
2017-04-20T05:56:27.785Z,1035.78
2017-04-20T05:57:08.253Z,1035.7
2017-04-20T05:57:48.774Z,1035.67
2017-04-20T05:58:29.218Z,1035.65
2017-04-20T05:59:09.830Z,1035.7
2017-04-20T05:59:50.356Z,1035.68
2017-04-20T06:00:30.885Z,1035.7
2017-04-20T06:01:11.407Z,1035.69
2017-04-20T06:01:52.860Z,1035.68
2017-04-20T06:02:33.362Z,1035.66
2017-04-20T06:03:13.842Z,1035.67
2017-04-20T06:03:54.520Z,1035.71
2017-04-20T06:04:35.008Z,1035.68
2017-04-20T06:05:15.474Z,1035.69
2017-04-20T06:05:56.010Z,1035.7
2017-04-20T06:06:36.452Z,1035.71
2017-04-20T06:07:16.958Z,1035.75
2017-04-20T06:07:57.445Z,1035.72
2017-04-20T06:08:37.970Z,1035.72
2017-04-20T06:09:18.517Z,1035.68
2017-04-20T06:09:59.005Z,1035.68
2017-04-20T06:10:39.539Z,1035.69
2017-04-20T06:11:20.029Z,1035.7
2017-04-20T06:12:00.472Z,1035.75
2017-04-20T06:12:40.974Z,1035.67
2017-04-20T06:13:21.464Z,1035.72
2017-04-20T06:14:01.995Z,1035.76
2017-04-20T06:14:43.469Z,1035.74
2017-04-20T06:15:35.310Z,1035.75
2017-04-20T06:16:32.919Z,1035.74
2017-04-20T06:17:30.485Z,1035.71
2017-04-20T06:18:20.140Z,1035.71
2017-04-20T06:19:18.402Z,1035.71
2017-04-20T06:20:17.355Z,1035.74
2017-04-20T06:21:12.445Z,1035.75
2017-04-20T06:22:06.252Z,1035.71
2017-04-20T06:23:07.442Z,1035.72
2017-04-20T06:24:00.855Z,1035.71
2017-04-20T06:24:56.237Z,1035.72
2017-04-20T06:25:53.368Z,1035.72
2017-04-20T06:26:49.069Z,1035.71
2017-04-20T06:27:46.209Z,1035.67
2017-04-20T06:28:42.049Z,1035.71
2017-04-20T06:29:39.415Z,1035.72
2017-04-20T06:30:32.940Z,1035.74
2017-04-20T06:31:31.866Z,1035.73
2017-04-20T06:32:28.915Z,1035.74
2017-04-20T06:33:26.947Z,1035.79
2017-04-20T06:36:33.562Z,1035.74
2017-04-20T06:37:33.277Z,1035.76
2017-04-20T06:38:28.791Z,1035.81
2017-04-20T06:39:26.598Z,1035.77
2017-04-20T06:40:24.087Z,1035.81
2017-04-20T06:41:11.529Z,1035.78
2017-04-20T06:41:57.477Z,1035.77
2017-04-20T06:42:38.176Z,1035.76
2017-04-20T06:43:19.139Z,1035.77
2017-04-20T06:44:08.527Z,1035.7
2017-04-20T06:44:54.656Z,1035.74
2017-04-20T06:45:43.014Z,1035.74
2017-04-20T06:46:30.510Z,1035.68
2017-04-20T06:47:21.137Z,1035.74
2017-04-20T06:48:05.880Z,1035.7
2017-04-20T06:48:46.647Z,1035.71
2017-04-20T06:49:27.147Z,1035.66
2017-04-20T06:50:07.583Z,1035.7
2017-04-20T06:50:48.096Z,1035.68
2017-04-20T06:51:28.534Z,1035.67
2017-04-20T06:52:09.004Z,1035.66
2017-04-20T06:52:49.571Z,1035.66
2017-04-20T06:53:30.027Z,1035.65
2017-04-20T06:54:10.723Z,1035.67
2017-04-20T06:54:51.160Z,1035.67
2017-04-20T06:55:31.613Z,1035.66
2017-04-20T06:56:12.111Z,1035.65
2017-04-20T06:56:52.622Z,1035.7
2017-04-20T06:57:33.253Z,1035.67
2017-04-20T06:58:13.747Z,1035.67
2017-04-20T06:58:54.263Z,1035.7
2017-04-20T06:59:34.808Z,1035.7
2017-04-20T07:00:15.277Z,1035.75
2017-04-20T07:00:55.751Z,1035.74
2017-04-20T07:01:36.237Z,1035.77
2017-04-20T07:02:16.751Z,1035.78
2017-04-20T07:02:57.247Z,1035.74
2017-04-20T07:03:37.693Z,1035.74
2017-04-20T07:04:18.182Z,1035.77
2017-04-20T07:04:58.625Z,1035.77
2017-04-20T07:05:39.075Z,1035.72
2017-04-20T07:08:16.175Z,1035.69
2017-04-20T07:08:59.922Z,1035.72
2017-04-20T07:09:48.207Z,1035.74
2017-04-20T07:10:35.225Z,1035.66
2017-04-20T07:11:15.641Z,1035.65
2017-04-20T07:11:56.562Z,1035.61
2017-04-20T07:12:37.027Z,1035.69
2017-04-20T07:13:17.612Z,1035.67
2017-04-20T07:13:59.077Z,1035.66
2017-04-20T07:14:40.244Z,1035.7
2017-04-20T07:15:20.737Z,1035.64
2017-04-20T07:16:01.233Z,1035.74
2017-04-20T07:16:43.683Z,1035.64
2017-04-20T07:17:28.991Z,1035.64
2017-04-20T07:18:13.812Z,1035.68
2017-04-20T07:18:57.166Z,1035.64
2017-04-20T07:19:37.764Z,1035.62
2017-04-20T07:20:18.591Z,1035.68
2017-04-20T07:20:59.249Z,1035.69
2017-04-20T07:21:39.882Z,1035.66
2017-04-20T07:22:20.373Z,1035.71
2017-04-20T07:23:00.850Z,1035.71
2017-04-20T07:23:41.348Z,1035.71
2017-04-20T07:24:21.881Z,1035.68
2017-04-20T07:25:02.330Z,1035.71
2017-04-20T07:25:49.756Z,1035.73
2017-04-20T07:26:30.291Z,1035.73
2017-04-20T07:27:10.821Z,1035.84
2017-04-20T07:27:51.312Z,1035.78
2017-04-20T07:28:31.856Z,1035.67
2017-04-20T07:29:12.380Z,1035.76
2017-04-20T07:29:52.868Z,1035.76
2017-04-20T07:30:33.925Z,1035.73
2017-04-20T07:31:14.409Z,1035.72
2017-04-20T07:31:54.834Z,1035.65
2017-04-20T07:32:35.768Z,1035.73
2017-04-20T07:33:16.265Z,1035.7
2017-04-20T07:33:57.010Z,1035.74
2017-04-20T07:34:37.790Z,1035.75
2017-04-20T07:35:18.576Z,1035.74
2017-04-20T07:35:59.453Z,1035.77
2017-04-20T07:36:40.135Z,1035.74
2017-04-20T07:37:20.886Z,1035.7
2017-04-20T07:38:01.436Z,1035.72
2017-04-20T07:38:42.095Z,1035.71
2017-04-20T07:39:22.566Z,1035.76
2017-04-20T07:40:03.033Z,1035.76
2017-04-20T07:40:43.532Z,1035.74
2017-04-20T07:41:24.183Z,1035.69
2017-04-20T07:43:47.813Z,1035.75
2017-04-20T07:44:30.479Z,1035.72
2017-04-20T07:45:11.148Z,1035.79
2017-04-20T07:46:01.425Z,1035.71
2017-04-20T07:46:51.748Z,1035.67
2017-04-20T07:47:38.159Z,1035.69
2017-04-20T07:48:22.770Z,1035.64
2017-04-20T07:49:08.070Z,1035.65
2017-04-20T07:49:53.152Z,1035.67
2017-04-20T07:50:42.909Z,1035.73
2017-04-20T07:51:30.291Z,1035.69
2017-04-20T07:52:19.150Z,1035.78
2017-04-20T07:52:59.710Z,1035.68
2017-04-20T07:53:40.181Z,1035.71
2017-04-20T07:54:20.641Z,1035.79
2017-04-20T07:55:01.115Z,1035.79
2017-04-20T07:55:43.511Z,1035.71
2017-04-20T07:56:24.090Z,1035.72
2017-04-20T07:57:04.633Z,1035.72
2017-04-20T07:57:45.090Z,1035.83
2017-04-20T07:58:27.058Z,1035.7
2017-04-20T07:59:07.044Z,1035.74
2017-04-20T07:59:47.574Z,1035.7
2017-04-20T08:00:28.081Z,1035.69
2017-04-20T08:01:08.468Z,1035.64
2017-04-20T08:01:48.976Z,1035.66
2017-04-20T08:02:29.401Z,1035.71
2017-04-20T08:03:09.893Z,1035.72
2017-04-20T08:03:50.383Z,1035.72
2017-04-20T08:04:30.904Z,1035.82
2017-04-20T08:05:11.361Z,1035.74
2017-04-20T08:05:51.816Z,1035.75
2017-04-20T08:06:32.311Z,1035.73
2017-04-20T08:07:12.811Z,1035.71
2017-04-20T08:07:53.340Z,1035.73
2017-04-20T08:08:33.820Z,1035.72
2017-04-20T08:09:14.347Z,1035.76
2017-04-20T08:09:54.839Z,1035.72
2017-04-20T08:10:35.332Z,1035.74
2017-04-20T08:11:15.802Z,1035.73
2017-04-20T08:11:56.420Z,1035.8
2017-04-20T08:12:36.846Z,1035.77
2017-04-20T08:13:17.353Z,1035.79
2017-04-20T08:13:57.906Z,1035.75
2017-04-20T08:14:38.378Z,1035.77
2017-04-20T08:15:18.953Z,1035.77
2017-04-20T08:15:59.672Z,1035.77
2017-04-20T08:16:40.072Z,1035.8
2017-04-20T08:17:20.531Z,1035.74
2017-04-20T08:18:01.053Z,1035.78
2017-04-20T08:18:41.517Z,1035.86
2017-04-20T08:19:22.028Z,1035.76
2017-04-20T08:20:02.498Z,1035.82
2017-04-20T08:20:42.988Z,1035.86
2017-04-20T08:21:23.524Z,1035.76
2017-04-20T08:22:04.000Z,1035.72
2017-04-20T08:22:44.519Z,1035.71
2017-04-20T08:23:25.088Z,1035.72
2017-04-20T08:24:05.517Z,1035.66
2017-04-20T08:24:46.014Z,1035.72
2017-04-20T08:25:26.504Z,1035.72
2017-04-20T08:26:06.973Z,1035.69
2017-04-20T08:28:23.826Z,1035.64